CW4221 Weather Reports


Display with metric or nautical units.
time (UTC)temp
F
wind
direction
speed
MPH
gust
MPH
rain 1hr
in
rain 24hr
in
rain mn
in
humidity
%
barometer
mb
20210622051317 54 333 0.0 0.0 0.00 0.48 0.00 95 1018.0
20210622050812 53 333 0.0 0.0 0.00 0.48 0.00 94 1018.1
20210622050327 53 333 0.0 0.0 0.00 0.48 0.00 94 1018.1
20210622045821 54 333 0.0 0.0 0.00 0.48 0.48 94 1018.2
20210622045316 54 333 0.0 0.0 0.00 0.48 0.48 94 1018.1
20210622044816 54 333 0.0 0.0 0.00 0.48 0.48 94 1018.2
20210622044311 55 333 0.0 0.0 0.00 0.48 0.48 94 1018.2
20210622043828 55 333 0.0 0.0 0.00 0.48 0.48 94 1018.2
20210622043322 55 333 0.0 0.0 0.00 0.48 0.48 94 1018.1
20210622042818 55 333 0.0 0.0 0.00 0.48 0.48 94 1018.0
20210622042313 55 333 0.0 0.0 0.00 0.48 0.48 93 1018.0
20210622041828 55 333 0.0 0.0 0.00 0.48 0.48 93 1017.9
20210622041328 56 333 0.0 0.0 0.00 0.48 0.48 94 1017.8
20210622040823 56 333 0.0 0.0 0.00 0.48 0.48 94 1017.8
20210622031814 57 333 0.0 1.0 0.00 0.48 0.48 91 1017.6
20210622031314 57 333 0.0 1.0 0.00 0.48 0.48 92 1017.6
20210622030830 57 333 0.0 0.0 0.00 0.48 0.48 91 1017.4
20210622030325 57 333 0.0 0.0 0.00 0.48 0.48 92 1017.4
20210622025817 57 333 0.0 0.0 0.00 0.48 0.48 91 1017.4
20210622025312 57 333 0.0 0.0 0.00 0.48 0.48 92 1017.2
20210622024827 57 333 0.0 0.0 0.00 0.48 0.48 91 1017.2
20210622024322 58 333 0.0 0.0 0.00 0.48 0.48 91 1017.1
20210622023817 58 333 0.0 0.0 0.00 0.48 0.48 90 1017.0
20210622023316 58 333 0.0 0.0 0.00 0.48 0.48 90 1017.0
20210622022811 59 333 0.0 0.0 0.00 0.48 0.48 89 1017.0
20210622022327 59 333 0.0 1.0 0.00 0.48 0.48 89 1016.9
20210622021821 59 333 0.0 1.0 0.00 0.48 0.48 87 1016.9
20210622021316 60 333 0.0 1.0 0.00 0.48 0.48 86 1016.9
20210622020813 60 333 0.0 0.0 0.00 0.48 0.48 86 1016.9
20210622020328 61 333 0.0 1.0 0.00 0.48 0.48 86 1016.8
20210622015826 62 333 0.0 1.0 0.00 0.48 0.48 84 1016.7
20210622015321 63 333 0.0 1.0 0.00 0.48 0.48 81 1016.6
20210622014815 63 333 1.0 1.0 0.00 0.48 0.48 80 1016.6
20210622014310 64 333 0.0 0.0 0.00 0.48 0.48 77 1016.6
20210622013825 64 333 0.0 2.0 0.00 0.48 0.48 74 1016.5
20210622013320 64 333 0.0 2.0 0.00 0.48 0.48 74 1016.6
20210622012813 64 333 0.0 4.0 0.00 0.48 0.48 74 1016.5
20210622012312 65 333 2.0 4.0 0.00 0.48 0.48 71 1016.4
20210622011827 65 331 1.0 3.0 0.00 0.48 0.48 72 1016.3
20210622011322 66 341 2.0 3.0 0.00 0.48 0.48 71 1016.2
20210622010817 66 338 1.0 4.0 0.00 0.48 0.48 69 1016.1
20210622010311 67 338 2.0 4.0 0.00 0.48 0.48 69 1016.1
20210622005825 67 337 2.0 3.0 0.00 0.48 0.48 67 1016.1
20210622005320 67 327 2.0 4.0 0.00 0.48 0.48 66 1016.0
20210622004814 68 43 2.0 6.0 0.00 0.48 0.48 65 1016.1
20210622004314 68 335 2.0 8.0 0.00 0.48 0.48 66 1016.0
20210622003829 68 345 4.0 6.0 0.00 0.48 0.48 63 1016.0
20210622003325 68 340 3.0 8.0 0.00 0.48 0.48 64 1016.0
20210622002821 69 341 3.0 8.0 0.00 0.48 0.48 63 1016.0
20210622002316 69 341 4.0 6.0 0.00 0.48 0.48 63 1016.0
20210622001812 68 347 4.0 8.0 0.00 0.48 0.48 62 1016.0
20210622001328 68 310 4.0 8.0 0.00 0.48 0.48 62 1016.0
20210622000829 69 339 4.0 10.0 0.00 0.48 0.48 62 1016.0
20210622000324 69 346 4.0 10.0 0.00 0.48 0.48 60 1016.0
20210621235819 69 9 4.0 10.0 0.00 0.48 0.48 61 1015.9
20210621235315 69 5 4.0 10.0 0.00 0.48 0.48 59 1015.7
20210621234810 70 325 5.0 9.0 0.00 0.48 0.48 58 1015.7
20210621234325 70 40 5.0 9.0 0.00 0.48 0.48 59 1015.5
20210621233819 70 348 3.0 9.0 0.00 0.48 0.48 60 1015.4
20210621233319 69 330 4.0 13.0 0.00 0.48 0.48 59 1015.4
20210621232813 70 342 7.0 13.0 0.00 0.48 0.48 57 1015.3
20210621232328 70 355 6.0 13.0 0.00 0.48 0.48 58 1015.3
20210621231823 70 334 8.0 13.0 0.00 0.48 0.48 57 1015.1
20210621231318 70 43 5.0 12.0 0.00 0.48 0.48 59 1015.0
20210621230813 70 355 8.0 12.0 0.00 0.48 0.48 57 1015.0
20210621230329 71 360 7.0 12.0 0.00 0.48 0.48 58 1015.0
20210621225823 71 347 5.0 13.0 0.00 0.48 0.48 62 1015.0
20210621225322 71 322 5.0 13.0 0.00 0.48 0.48 60 1014.8
20210621224816 72 5 6.0 13.0 0.00 0.48 0.48 60 1014.8
20210621224311 71 343 5.0 10.0 0.00 0.48 0.48 61 1014.9
20210621223826 70 333 4.0 14.0 0.00 0.48 0.48 63 1014.8
20210621223322 70 355 8.0 14.0 0.00 0.48 0.48 59 1014.7
20210621222818 70 344 7.0 16.0 0.00 0.48 0.48 62 1014.8
20210621222314 70 355 7.0 14.0 0.00 0.48 0.48 60 1014.8
20210621221814 71 317 6.0 14.0 0.00 0.48 0.48 61 1014.8
20210621221329 71 344 6.0 13.0 0.00 0.48 0.48 62 1014.8
20210621220822 71 328 7.0 14.0 0.00 0.48 0.48 62 1014.8
20210621220315 71 344 7.0 14.0 0.00 0.48 0.48 59 1014.8
20210621215829 71 350 6.0 13.0 0.00 0.48 0.48 65 1014.8
20210621215324 71 336 8.0 13.0 0.00 0.48 0.48 61 1014.9
20210621214820 71 11 7.0 13.0 0.00 0.48 0.48 64 1015.0
20210621214319 71 5 9.0 13.0 0.00 0.48 0.48 62 1015.0
20210621213814 71 326 5.0 11.0 0.00 0.48 0.48 63 1015.1
20210621213329 71 314 6.0 11.0 0.00 0.48 0.48 64 1015.1
20210621212825 71 317 4.0 10.0 0.00 0.48 0.48 67 1015.1
20210621212319 71 328 6.0 10.0 0.00 0.48 0.48 67 1015.2
20210621211815 71 360 3.0 10.0 0.00 0.48 0.48 71 1015.1
20210621211311 70 327 4.0 10.0 0.00 0.48 0.48 69 1015.2
20210621210811 70 355 5.0 10.0 0.00 0.48 0.48 69 1015.3
20210621210327 70 293 6.0 10.0 0.00 0.48 0.48 69 1015.3
20210621205821 70 355 5.0 10.0 0.00 0.48 0.48 70 1015.4
20210621205315 70 336 4.0 10.0 0.00 0.48 0.48 67 1015.4
20210621204830 71 344 3.0 10.0 0.00 0.48 0.48 70 1015.3
20210621204324 70 329 4.0 10.0 0.00 0.48 0.48 69 1015.5
20210621203819 71 346 4.0 12.0 0.00 0.48 0.48 67 1015.5
20210621203313 71 327 5.0 12.0 0.00 0.48 0.48 66 1015.4
20210621202810 72 18 4.0 9.0 0.00 0.48 0.48 69 1015.3
20210621202325 72 355 4.0 9.0 0.00 0.48 0.48 70 1015.3
20210621201820 70 34 4.0 8.0 0.00 0.48 0.48 69 1015.4
20210621201315 69 17 4.0 10.0 0.00 0.48 0.48 69 1015.4
20210621200810 69 336 5.0 11.0 0.00 0.48 0.48 68 1015.3
20210621200325 69 336 7.0 11.0 0.00 0.48 0.48 68 1015.3
20210621195819 70 327 4.0 8.0 0.00 0.48 0.48 70 1015.4
20210621195318 69 321 2.0 10.0 0.00 0.48 0.48 70 1015.4
20210621194813 69 24 4.0 10.0 0.00 0.48 0.48 68 1015.4
20210621194329 69 355 5.0 8.0 0.00 0.48 0.48 69 1015.4
20210621193824 69 360 3.0 10.0 0.00 0.48 0.48 72 1015.4
20210621193319 69 355 7.0 11.0 0.00 0.48 0.48 69 1015.3
20210621192814 68 33 4.0 13.0 0.00 0.48 0.48 68 1015.2
20210621192330 69 15 6.0 15.0 0.00 0.48 0.48 69 1015.0
20210621191825 69 30 7.0 15.0 0.00 0.48 0.48 65 1015.1
20210621191325 69 5 5.0 14.0 0.00 0.48 0.48 70 1014.9
20210621190821 69 27 8.0 14.0 0.00 0.48 0.48 70 1014.9
20210621190316 69 340 7.0 12.0 0.00 0.48 0.48 72 1014.8
20210621185812 69 21 6.0 10.0 0.00 0.48 0.48 74 1014.8
20210621185327 68 340 6.0 15.0 0.00 0.48 0.48 77 1015.0
20210621184823 68 360 6.0 15.0 0.00 0.48 0.48 75 1015.1
20210621184319 67 346 7.0 13.0 0.00 0.48 0.48 78 1015.1
20210621183819 67 15 7.0 11.0 0.00 0.48 0.48 79 1015.1
20210621183315 67 30 5.0 9.0 0.00 0.48 0.48 81 1015.3
20210621182811 67 321 5.0 10.0 0.00 0.48 0.48 83 1015.1
20210621182325 66 14 4.0 10.0 0.00 0.48 0.48 85 1014.9
20210621181820 65 67 5.0 11.0 0.00 0.48 0.48 84 1014.8
20210621181315 65 21 5.0 11.0 0.00 0.48 0.48 85 1014.9
20210621180810 65 343 5.0 11.0 0.00 0.48 0.48 86 1015.1
20210621180330 64 30 5.0 11.0 0.00 0.48 0.48 87 1015.0
20210621175824 64 348 3.0 10.0 0.00 0.48 0.48 89 1014.8
20210621175319 63 341 6.0 10.0 0.00 0.48 0.48 88 1014.6
20210621174814 64 311 6.0 10.0 0.00 0.48 0.48 89 1014.5
20210621174329 64 11 6.0 10.0 0.00 0.48 0.48 89 1014.4
20210621173824 64 35 4.0 10.0 0.00 0.48 0.48 91 1014.3
20210621173320 64 19 5.0 10.0 0.00 0.48 0.48 91 1014.1
20210621172820 64 355 5.0 10.0 0.00 0.48 0.48 91 1014.0
20210621172316 64 23 4.0 9.0 0.01 0.48 0.48 92 1014.1
20210621171812 64 17 5.0 9.0 0.01 0.48 0.48 92 1014.3
20210621171328 64 349 3.0 6.0 0.01 0.48 0.48 93 1014.7
20210621170824 63 345 4.0 9.0 0.01 0.48 0.48 92 1014.9
20210621170320 63 335 5.0 9.0 0.02 0.48 0.48 93 1015.2
20210621165815 63 28 3.0 9.0 0.02 0.48 0.48 93 1015.3
20210621165315 63 42 2.0 6.0 0.02 0.48 0.48 93 1015.2
20210621164811 63 351 3.0 8.0 0.02 0.48 0.48 93 1015.4
20210621164327 63 34 3.0 8.0 0.02 0.48 0.48 93 1015.6
20210621163821 63 360 4.0 6.0 0.02 0.48 0.48 93 1015.9
20210621163317 63 344 3.0 4.0 0.02 0.48 0.48 93 1015.9
20210621162812 63 344 3.0 5.0 0.01 0.47 0.47 93 1016.0
20210621162327 63 329 2.0 5.0 0.01 0.47 0.47 93 1016.0
20210621161822 63 329 2.0 4.0 0.01 0.47 0.47 93 1016.0
20210621161321 63 329 2.0 3.0 0.01 0.47 0.47 92 1016.1
20210621160816 63 332 1.0 3.0 0.01 0.47 0.47 92 1016.3
20210621160310 63 243 0.0 2.0 0.00 0.46 0.46 92 1016.4
20210621155824 63 240 0.0 2.0 0.00 0.46 0.46 92 1016.5
20210621155317 63 240 1.0 4.0 0.00 0.46 0.46 92 1016.5
20210621154821 63 238 1.0 4.0 0.00 0.46 0.46 91 1016.6
20210621154316 63 249 0.0 3.0 0.00 0.46 0.46 91 1016.6
20210621153816 64 249 1.0 3.0 0.00 0.46 0.46 91 1016.6
20210621153310 64 234 0.0 2.0 0.00 0.46 0.46 91 1016.6
20210621152824 64 234 1.0 5.0 0.00 0.46 0.46 91 1016.4
20210621152319 64 234 2.0 7.0 0.00 0.46 0.46 90 1016.3
20210621151814 64 265 2.0 7.0 0.00 0.46 0.46 91 1016.3
20210621151329 64 254 2.0 3.0 0.00 0.46 0.46 91 1016.3
20210621150824 63 328 0.0 8.0 0.00 0.46 0.46 91 1016.0
20210621150320 63 339 3.0 9.0 0.00 0.46 0.46 91 1015.7
20210621145819 63 327 4.0 8.0 0.00 0.46 0.46 91 1015.6
20210621145314 63 346 4.0 6.0 0.00 0.46 0.46 91 1015.2
20210621144830 63 36 3.0 11.0 0.00 0.46 0.46 92 1015.1
20210621144325 63 341 6.0 11.0 0.00 0.46 0.46 91 1015.2
20210621143818 63 346 3.0 9.0 0.00 0.46 0.46 92 1014.8
20210621143314 63 355 5.0 9.0 0.00 0.46 0.46 92 1014.6
20210621142829 63 25 4.0 10.0 0.00 0.46 0.46 92 1014.0
20210621142329 63 348 4.0 10.0 0.01 0.46 0.46 91 1014.1
20210621141825 63 25 4.0 9.0 0.01 0.46 0.46 92 1014.2
20210621141321 63 350 5.0 10.0 0.01 0.46 0.46 92 1014.2
20210621140817 64 342 4.0 10.0 0.01 0.46 0.46 92 1013.9
20210621140314 64 339 5.0 12.0 0.01 0.46 0.46 92 1013.4
20210621135829 64 28 5.0 12.0 0.02 0.46 0.46 93 1013.3
20210621135325 64 319 6.0 13.0 0.02 0.46 0.46 94 1013.3
20210621134823 64 12 5.0 13.0 0.03 0.46 0.46 94 1013.3
20210621134319 63 42 5.0 12.0 0.03 0.46 0.46 94 1013.7
20210621133815 63 345 6.0 12.0 0.04 0.46 0.46 94 1013.9
20210621133329 63 323 5.0 12.0 0.05 0.46 0.46 94 1013.8
20210621132824 63 335 5.0 12.0 0.06 0.46 0.46 94 1013.7
20210621132319 63 322 4.0 9.0 0.06 0.45 0.45 95 1013.8
20210621131814 63 334 1.0 5.0 0.07 0.45 0.45 94 1013.8
20210621131313 63 329 2.0 5.0 0.08 0.45 0.45 94 1013.1
20210621130828 63 333 2.0 6.0 0.10 0.45 0.45 94 1013.0
20210621130323 63 24 2.0 8.0 0.24 0.45 0.45 94 1012.5
20210621125818 63 5 3.0 11.0 0.39 0.44 0.44 94 1012.5
20210621125313 63 30 3.0 11.0 0.43 0.44 0.44 94 1011.6
20210621124829 63 11 3.0 11.0 0.42 0.43 0.43 94 1011.1
20210621124323 63 48 4.0 10.0 0.42 0.43 0.43 93 1011.0
20210621123818 63 59 4.0 10.0 0.41 0.42 0.42 93 1011.6
20210621123318 64 27 3.0 10.0 0.40 0.41 0.41 93 1012.3
20210621122814 64 27 3.0 9.0 0.39 0.40 0.40 93 1012.7
20210621122329 65 29 3.0 6.0 0.38 0.39 0.39 93 1013.0
20210621121824 65 26 2.0 5.0 0.37 0.38 0.38 93 1013.0
20210621121320 65 26 1.0 4.0 0.36 0.37 0.37 93 1012.7
20210621120816 66 26 1.0 9.0 0.33 0.34 0.34 92 1013.0
20210621120310 66 348 3.0 9.0 0.16 0.17 0.17 91 1013.7
20210621115828 67 355 2.0 11.0 0.02 0.03 0.03 90 1013.8
20210621115323 67 324 5.0 11.0 0.00 0.01 0.01 88 1013.6
20210621114818 68 336 3.0 9.0 0.00 0.01 0.01 88 1012.6
20210621114314 68 17 2.0 9.0 0.00 0.01 0.01 88 1012.2
20210621113828 68 344 3.0 11.0 0.00 0.01 0.01 88 1012.2
20210621113322 68 322 5.0 11.0 0.00 0.01 0.01 88 1012.2
20210621112817 68 323 3.0 8.0 0.00 0.01 0.01 88 1012.7
20210621112316 68 332 2.0 5.0 0.00 0.01 0.01 88 1011.3
20210621111810 68 28 2.0 6.0 0.00 0.01 0.01 87 1010.9
20210621111324 68 36 3.0 7.0 0.00 0.01 0.01 87 1010.9
20210621110820 68 355 3.0 8.0 0.00 0.01 0.01 86 1011.0
20210621110316 69 31 3.0 5.0 0.00 0.01 0.01 86 1011.0
20210621105811 69 360 2.0 5.0 0.01 0.01 0.01 87 1011.0
20210621105327 69 337 3.0 9.0 0.01 0.01 0.01 86 1011.0
20210621104823 69 37 3.0 6.0 0.01 0.01 0.01 86 1010.9
20210621104322 69 351 3.0 8.0 0.01 0.01 0.01 86 1010.7
20210621103819 69 13 3.0 9.0 0.01 0.01 0.01 86 1010.5
20210621103314 69 325 4.0 9.0 0.01 0.01 0.01 86 1010.4
20210621102810 69 319 4.0 6.0 0.01 0.01 0.01 86 1010.2
20210621102324 69 355 4.0 6.0 0.01 0.01 0.01 86 1010.0
20210621101820 69 340 3.0 6.0 0.01 0.01 0.01 86 1010.0
20210621101314 69 329 2.0 8.0 0.01 0.01 0.01 87 1010.0
20210621100813 70 355 4.0 9.0 0.01 0.01 0.01 88 1010.1
20210621100329 70 340 3.0 9.0 0.01 0.01 0.01 89 1010.0
20210621095824 70 340 4.0 9.0 0.00 0.00 0.00 89 1010.1
20210621095318 70 319 4.0 9.0 0.00 0.00 0.00 89 1010.0
20210621094814 70 336 4.0 8.0 0.00 0.00 0.00 89 1009.7
20210621094310 71 337 4.0 9.0 0.00 0.00 0.00 88 1009.5
20210621093826 71 11 5.0 9.0 0.00 0.00 0.00 88 1009.4
20210621093325 72 23 3.0 9.0 0.00 0.00 0.00 89 1009.5
20210621092819 72 355 5.0 10.0 0.00 0.00 0.00 89 1009.6
20210621092315 72 342 4.0 10.0 0.00 0.00 0.00 88 1009.5
20210621091810 72 336 3.0 4.0 0.00 0.00 0.00 88 1009.5
20210621091324 72 323 2.0 3.0 0.00 0.00 0.00 87 1009.6
20210621090819 72 323 2.0 3.0 0.00 0.00 0.00 87 1009.5
20210621090314 72 323 0.0 1.0 0.00 0.00 0.00 86 1009.5
20210621085814 72 323 0.0 2.0 0.00 0.00 0.00 85 1009.5
20210621085309 72 323 1.0 2.0 0.00 0.00 0.00 84 1009.4
20210621084825 72 323 1.0 3.0 0.00 0.00 0.00 84 1009.4
20210621084320 73 323 2.0 3.0 0.00 0.00 0.00 82 1009.5
20210621083816 73 14 1.0 4.0 0.00 0.00 0.00 80 1009.5
20210621083313 73 15 2.0 4.0 0.00 0.00 0.00 79 1009.5
20210621082829 74 14 2.0 3.0 0.00 0.00 0.00 77 1009.4
20210621082325 74 333 2.0 6.0 0.00 0.00 0.00 75 1009.7
20210621081825 75 330 4.0 6.0 0.00 0.00 0.00 73 1009.6
20210621081321 75 331 3.0 8.0 0.00 0.00 0.00 72 1009.6
20210621080817 76 329 5.0 10.0 0.00 0.00 0.00 70 1009.6
20210621080313 76 355 5.0 12.0 0.00 0.00 0.00 68 1009.5
20210621075828 77 24 7.0 12.0 0.00 0.00 0.00 68 1009.6
20210621075323 77 344 5.0 10.0 0.00 0.00 0.00 71 1009.6
20210621074819 77 344 6.0 11.0 0.00 0.00 0.00 72 1009.6
20210621074318 78 40 6.0 11.0 0.00 0.00 0.00 74 1009.7
20210621073814 78 315 5.0 11.0 0.00 0.00 0.00 74 1009.8
20210621073310 78 333 1.0 3.0 0.00 0.00 0.00 75 1009.4
20210621072826 78 283 0.0 4.0 0.00 0.00 0.00 74 1008.8
20210621072322 78 259 3.0 5.0 0.00 0.00 0.00 73 1008.6
20210621071818 78 236 3.0 6.0 0.00 0.00 0.00 73 1008.1
20210621071313 78 232 3.0 6.0 0.00 0.00 0.00 73 1008.3
20210621070811 78 242 2.0 8.0 0.00 0.00 0.00 73 1008.0
20210621070327 78 222 4.0 8.0 0.00 0.00 0.00 73 1008.1
20210621065821 78 266 4.0 8.0 0.00 0.00 0.00 73 1007.9
20210621065316 78 234 4.0 9.0 0.00 0.00 0.00 73 1008.2
20210621064811 78 266 4.0 7.0 0.00 0.00 0.00 73 1008.2
20210621064326 78 268 4.0 7.0 0.00 0.00 0.00 73 1008.1
20210621063821 78 200 3.0 7.0 0.00 0.00 0.00 73 1007.8
20210621063320 78 234 4.0 8.0 0.00 0.00 0.00 73 1007.9
20210621062814 78 236 3.0 5.0 0.00 0.00 0.00 73 1007.6
20210621062329 78 217 2.0 7.0 0.00 0.00 0.00 73 1007.6
20210621061824 78 234 3.0 7.0 0.00 0.00 0.00 72 1007.6
20210621061318 78 227 3.0 7.0 0.00 0.00 0.00 72 1007.6
20210621060812 78 233 4.0 8.0 0.00 0.00 0.00 72 1007.6
20210621060327 78 199 3.0 6.0 0.00 0.00 0.00 72 1007.6
20210621055821 78 254 3.0 6.0 0.00 0.00 0.00 72 1007.7
20210621055320 78 265 3.0 6.0 0.00 0.00 0.00 72 1007.9
20210621054815 78 211 3.0 5.0 0.00 0.00 0.00 71 1007.9
20210621054309 78 219 3.0 7.0 0.00 0.00 0.00 71 1007.9
20210621053824 78 238 4.0 7.0 0.00 0.00 0.00 71 1007.8
20210621053319 78 200 3.0 7.0 0.00 0.00 0.00 71 1007.7
20210621052815 78 236 3.0 5.0 0.00 0.00 0.00 71 1007.7
20210621052311 78 201 2.0 7.0 0.00 0.00 0.00 71 1007.7
20210621051811 79 201 3.0 7.0 0.00 0.00 0.00 71 1007.7